Latest Weather Observations for Puckapunyal-Lyon Hill (Defence)

IDV60801

Issued at 4:42 pm EST Sunday 18 August 2019 (issued every 10 minutes, with the page automatically refreshed every 10 minutes)

About weather observations | Map of weather stations | Latest weather observations for VIC | Other Formats
Station Details ID: 088167 Name: PUCKAPUNYAL LYON HILL (DEFENCE) Lat: -36.94 Lon: 145.05 Height: 193.0 m
Data from the previous 72 hours. | See also: Recent months at Puckapunyal-Lyon Hill (Defence)
Date/Time
EST
Temp
°C
App
Temp
°C
Dew
Point
°C
Rel
Hum
%
Delta-T
°C
Wind Press
QNH
hPa
Press
MSL
hPa
Rain since
9am
mm
Dir  Spd
km/h
Gust
km/h
Spd
kts
Gust
kts
18/04:30pm 8.6 4.2 7.2 91 0.7 NW 20 28 11 15 - - 3.8
18/04:00pm 9.3 3.0 7.4 88 0.9 NW 30 41 16 22 - - 2.6
18/03:30pm 10.0 4.1 7.6 85 1.2 WNW 28 37 15 20 - - 0.8
18/03:00pm 11.8 5.3 6.5 70 2.5 WNW 30 44 16 24 - - 0.0
18/02:57pm 12.2 6.0 6.3 67 2.8 WNW 28 44 15 24 - - 0.0
18/02:30pm 13.9 9.3 6.3 60 3.7 NW 20 26 11 14 - - 0.0
18/02:00pm 14.3 9.0 6.9 61 3.6 NW 24 32 13 17 - - 0.0
18/01:30pm 14.6 10.0 6.4 58 4.0 NNW 20 28 11 15 - - 0.0
18/01:00pm 14.5 9.0 6.1 57 4.1 N 24 35 13 19 - - 0.0
18/12:30pm 14.7 9.4 6.8 59 3.9 NNE 24 35 13 19 - - 0.0
18/12:00pm 14.0 8.7 6.8 62 3.5 NNE 24 39 13 21 - - 0.0
18/11:30am 13.5 7.4 6.4 62 3.4 N 28 39 15 21 - - 0.0
18/11:00am 13.4 6.8 6.0 61 3.5 NNE 30 43 16 23 - - 0.0
18/10:30am 13.0 7.2 6.1 63 3.3 NNE 26 39 14 21 - - 0.0
18/10:00am 12.6 5.5 5.5 62 3.3 NE 32 44 17 24 - - 0.0
18/09:30am 12.1 4.8 5.5 64 3.1 NE 33 44 18 24 - - 0.0
18/09:21am 12.2 5.0 5.1 62 3.3 NE 32 44 17 24 - - 0.0
18/09:00am 11.7 7.0 5.1 64 3.1 NNE 19 26 10 14 - - 0.0
18/08:30am 11.8 5.7 5.0 63 3.1 NE 26 39 14 21 - - 0.0
18/08:00am 11.4 5.4 5.1 65 2.9 NE 26 44 14 24 - - 0.0
18/07:30am 11.1 4.3 5.2 67 2.7 NE 30 44 16 24 - - 0.0
18/07:00am 10.8 4.8 5.3 69 2.5 NE 26 37 14 20 - - 0.0
18/06:30am 10.3 3.7 5.9 74 2.1 NE 30 41 16 22 - - 0.0
18/06:00am 9.5 6.2 6.2 80 1.5 NNE 13 24 7 13 - - 0.0
18/05:30am 9.8 5.1 6.2 78 1.7 NE 20 33 11 18 - - 0.0
18/05:00am 9.3 4.6 5.9 79 1.6 NE 20 28 11 15 - - 0.0
18/04:30am 8.7 5.7 6.0 83 1.2 NE 11 17 6 9 - - 0.0
18/04:00am 8.7 5.7 6.2 84 1.2 NE 11 17 6 9 - - 0.0
18/03:30am 8.5 5.1 6.1 85 1.1 NE 13 19 7 10 - - 0.0
18/03:00am 7.8 4.8 5.9 88 0.9 NE 11 15 6 8 - - 0.0
18/02:30am 7.8 4.8 5.9 88 0.9 NE 11 15 6 8 - - 0.0
18/02:00am 7.8 4.0 5.8 87 0.9 NE 15 22 8 12 - - 0.0
18/01:30am 7.8 4.5 6.3 90 0.7 NE 13 19 7 10 - - 0.0
18/01:00am 7.6 3.9 6.2 91 0.6 NE 15 20 8 11 - - 0.0
18/12:30am 7.1 3.7 6.0 93 0.5 NE 13 17 7 9 - - 0.0
18/12:00am 7.2 3.8 6.0 92 0.5 NE 13 17 7 9 - - 0.0
 
Date/Time
EST
Temp
°C
App
Temp
°C
Dew
Point
°C
Rel
Hum
%
Delta-T
°C
Wind Press
QNH
hPa
Press
MSL
hPa
Rain since
9am
mm
Dir  Spd
km/h
Gust
km/h
Spd
kts
Gust
kts
17/11:30pm 7.5 4.1 6.0 90 0.7 ENE 13 17 7 9 - - 0.0
17/11:00pm 7.8 4.4 6.1 89 0.8 NE 13 17 7 9 - - 0.0
17/10:30pm 8.3 5.3 6.1 86 1.0 NNE 11 17 6 9 - - 0.0
17/10:00pm 8.7 5.7 6.2 84 1.2 NNE 11 17 6 9 - - 0.0
17/09:30pm 8.7 5.7 6.0 83 1.2 N 11 13 6 7 - - 0.0
17/09:00pm 8.6 6.3 5.7 82 1.3 N 7 9 4 5 - - 0.0
17/08:30pm 9.3 7.0 5.9 79 1.6 NE 7 11 4 6 - - 0.0
17/08:00pm 9.3 7.0 5.7 78 1.7 NE 7 9 4 5 - - 0.0
17/07:30pm 9.9 7.3 5.9 76 1.9 NE 9 13 5 7 - - 0.0
17/07:00pm 10.2 7.2 6.0 75 2.0 NE 11 15 6 8 - - 0.0
17/06:30pm 10.3 7.4 6.3 76 1.9 NE 11 15 6 8 - - 0.0
17/06:00pm 10.9 7.6 6.3 73 2.2 ENE 13 17 7 9 - - 0.0
17/05:30pm 11.9 8.6 6.2 68 2.7 NE 13 19 7 10 - - 0.0
17/05:00pm 13.0 9.6 5.9 62 3.4 N 13 19 7 10 - - 0.0
17/04:30pm 13.6 10.3 6.2 61 3.6 N 13 19 7 10 - - 0.0
17/04:00pm 13.9 9.9 6.5 61 3.6 NNE 17 22 9 12 - - 0.0
17/03:30pm 13.8 9.6 5.7 58 3.9 NE 17 20 9 11 - - 0.0
17/03:00pm 13.7 10.6 5.6 58 3.9 NE 11 17 6 9 - - 0.0
17/02:30pm 13.9 10.8 5.5 57 4.0 NNE 11 17 6 9 - - 0.0
17/02:00pm 13.7 10.7 5.8 59 3.8 NNE 11 19 6 10 - - 0.0
17/01:30pm 13.6 10.4 5.3 57 3.9 NNE 11 17 6 9 - - 0.0
17/01:00pm 13.4 10.0 5.8 60 3.6 NNE 13 20 7 11 - - 0.0
17/12:30pm 12.7 10.0 5.8 63 3.3 E 9 15 5 8 - - 0.0
17/12:00pm 12.2 9.7 4.7 60 3.5 E 7 13 4 7 - - 0.0
17/11:30am 12.0 9.4 5.9 66 2.9 ESE 9 17 5 9 - - 0.0
17/11:00am 11.1 8.0 5.4 68 2.6 SE 11 17 6 9 - - 0.0
17/10:30am 10.1 7.0 5.5 73 2.1 S 11 15 6 8 - - 0.0
17/10:00am 9.6 6.0 5.2 74 2.0 SE 13 19 7 10 - - 0.0
17/09:30am 8.6 4.2 4.8 77 1.7 SSE 17 22 9 12 - - 0.0
17/09:00am 8.0 4.8 5.1 82 1.3 SSE 11 20 6 11 - - 1.4
17/08:30am 6.8 4.0 5.1 89 0.8 S 9 15 5 8 - - 1.4
17/08:00am 5.8 2.1 4.6 92 0.5 S 13 17 7 9 - - 1.4
17/07:30am 5.3 1.6 4.3 93 0.4 SSW 13 19 7 10 - - 1.4
17/07:00am 4.9 1.1 3.9 93 0.4 SSW 13 19 7 10 - - 1.4
17/06:30am 4.6 1.2 3.9 95 0.3 SW 11 13 6 7 - - 1.4
17/06:00am 4.0 1.4 3.1 94 0.4 SW 6 7 3 4 - - 1.4
17/05:30am 5.1 2.4 3.9 92 0.5 S 7 15 4 8 - - 1.4
17/05:00am 5.7 2.7 4.3 91 0.6 SSW 9 15 5 8 - - 1.4
17/04:30am 5.5 3.0 4.5 93 0.4 SSW 7 9 4 5 - - 1.4
17/04:00am 4.9 2.3 4.2 95 0.3 SSE 7 11 4 6 - - 1.4
17/03:30am 5.5 2.2 4.3 92 0.5 S 11 15 6 8 - - 1.4
17/03:00am 5.9 3.0 4.5 91 0.6 SW 9 11 5 6 - - 1.2
17/02:30am 5.9 2.2 4.7 92 0.5 SW 13 15 7 8 - - 1.2
17/02:00am 6.8 3.2 4.8 87 0.9 SW 13 19 7 10 - - 1.2
17/01:30am 7.0 3.4 5.0 87 0.9 S 13 17 7 9 - - 1.2
17/01:00am 6.5 3.7 5.1 91 0.6 SSW 9 13 5 7 - - 1.2
17/12:30am 6.7 3.9 5.2 90 0.7 S 9 15 5 8 - - 1.2
17/12:00am 7.0 4.6 5.3 89 0.8 S 7 13 4 7 - - 1.2
 
Date/Time
EST
Temp
°C
App
Temp
°C
Dew
Point
°C
Rel
Hum
%
Delta-T
°C
Wind Press
QNH
hPa
Press
MSL
hPa
Rain since
9am
mm
Dir  Spd
km/h
Gust
km/h
Spd
kts
Gust
kts
16/11:30pm 7.5 4.0 5.5 87 0.9 SSE 13 20 7 11 - - 1.2
16/11:00pm 7.9 3.2 5.9 87 0.9 SSW 20 32 11 17 - - 1.2
16/10:30pm 8.2 4.9 6.3 88 0.9 SSW 13 17 7 9 - - 1.2
16/10:00pm 7.8 5.2 6.3 90 0.7 S 9 17 5 9 - - 1.2
16/09:30pm 8.3 5.5 6.9 91 0.7 S 11 19 6 10 - - 1.2
16/09:00pm 8.6 5.8 6.9 89 0.8 S 11 17 6 9 - - 1.2
16/08:30pm 8.5 4.8 6.3 86 1.0 S 15 22 8 12 - - 1.2
16/08:00pm 8.7 4.9 6.0 83 1.2 SSW 15 22 8 12 - - 1.2
16/07:30pm 8.8 5.1 6.4 85 1.1 SSW 15 26 8 14 - - 1.2
16/07:00pm 8.8 6.0 7.1 89 0.8 S 11 15 6 8 - - 1.2
16/06:30pm 8.8 6.9 7.7 93 0.5 S 7 13 4 7 - - 1.2
16/06:00pm 9.0 7.2 8.1 94 0.4 SSE 7 11 4 6 - - 1.2
16/05:30pm 9.5 7.4 8.3 92 0.6 SSE 9 13 5 7 - - 1.2
16/05:00pm 10.0 8.5 8.6 91 0.7 S 6 7 3 4 - - 1.2
16/04:30pm 10.2 9.1 8.6 90 0.8 S 4 6 2 3 - - 1.2
16/04:00pm 10.9 9.2 8.3 84 1.3 S 7 13 4 7 - - 1.0
16/03:30pm 11.6 10.9 8.5 81 1.5 E 2 6 1 3 - - 1.0
16/03:00pm 11.5 9.6 7.4 76 2.0 NNE 7 13 4 7 - - 0.8
16/02:30pm 11.3 8.6 7.2 76 2.0 NNE 11 15 6 8 - - 0.8
16/02:00pm 11.5 8.7 7.0 74 2.2 NNE 11 17 6 9 - - 0.8
16/01:30pm 10.7 7.8 6.6 76 1.9 NE 11 15 6 8 - - 0.8
16/01:00pm 9.9 7.0 6.4 79 1.6 NE 11 17 6 9 - - 0.8
16/12:30pm 9.9 7.4 6.4 79 1.6 NE 9 13 5 7 - - 0.8
16/12:00pm 9.8 5.8 6.7 81 1.5 NNE 17 24 9 13 - - 0.8
16/11:30am 9.1 5.8 6.5 84 1.2 NNE 13 17 7 9 - - 0.8
16/11:00am 9.5 6.0 5.3 75 1.9 NNE 13 17 7 9 - - 0.4
16/10:30am 9.0 5.8 5.2 77 1.7 NNE 11 17 6 9 - - 0.4
16/10:00am 8.6 5.3 4.8 77 1.7 N 11 17 6 9 - - 0.2
16/09:30am 8.6 5.0 4.8 77 1.7 NE 13 26 7 14 - - 0.2
16/09:00am 8.0 4.3 4.6 79 1.5 NNE 13 17 7 9 - - 0.0
16/08:30am 8.1 5.5 4.1 76 1.8 N 7 11 4 6 - - 0.0
16/08:00am 8.0 4.2 4.0 76 1.8 N 13 28 7 15 - - 0.0
16/07:30am 8.2 3.2 3.7 73 2.0 NNE 19 26 10 14 - - 0.0
16/07:00am 7.7 2.7 3.7 76 1.7 NNE 19 30 10 16 - - 0.0
16/06:30am 7.5 3.7 3.9 78 1.6 NNE 13 19 7 10 - - 0.0
16/06:00am 7.6 3.7 3.6 76 1.7 NNE 13 20 7 11 - - 0.0
16/05:30am 7.9 2.7 3.8 75 1.8 NNE 20 28 11 15 - - 0.0
16/05:00am 7.7 3.1 3.9 77 1.7 NNE 17 24 9 13 - - 0.0
16/04:30am 7.6 3.1 4.0 78 1.6 NNE 17 26 9 14 - - 0.0
16/04:00am 7.4 2.9 4.4 81 1.3 NNE 17 24 9 13 - - 0.0
16/03:30am 7.3 3.2 4.3 81 1.3 NNE 15 20 8 11 - - 0.0
16/03:00am 7.7 2.8 4.1 78 1.6 NNE 19 24 10 13 - - 0.0
16/02:30am 8.6 3.8 4.4 75 1.9 NNE 19 26 10 14 - - 0.0
16/02:00am 8.8 4.3 4.4 74 2.0 NNE 17 26 9 14 - - 0.0
16/01:30am 9.1 4.3 4.7 74 2.0 NE 19 26 10 14 - - 0.0
16/01:00am 8.9 4.5 4.9 76 1.8 NE 17 28 9 15 - - 0.0
16/12:30am 8.9 4.6 5.1 77 1.7 NNE 17 22 9 12 - - 0.0
16/12:00am 9.4 5.5 5.2 75 1.9 NNE 15 20 8 11 - - 0.0
 
Date/Time
EST
Temp
°C
App
Temp
°C
Dew
Point
°C
Rel
Hum
%
Delta-T
°C
Wind Press
QNH
hPa
Press
MSL
hPa
Rain since
9am
mm
Dir  Spd
km/h
Gust
km/h
Spd
kts
Gust
kts
15/11:30pm 9.8 5.2 5.6 75 1.9 NNE 19 24 10 13 - - 0.0
15/11:00pm 10.2 5.6 5.6 73 2.1 NNE 19 30 10 16 - - 0.0
15/10:30pm 10.6 4.8 6.2 74 2.1 NE 26 35 14 19 - - 0.0
15/10:00pm 10.7 6.3 6.5 75 2.0 NE 19 24 10 13 - - 0.0
15/09:30pm 10.8 7.2 6.7 76 2.0 NE 15 24 8 13 - - 0.0
15/09:00pm 11.0 7.1 6.9 76 2.0 NE 17 22 9 12 - - 0.0
15/08:30pm 11.3 7.8 7.2 76 2.0 NNE 15 22 8 12 - - 0.0
15/08:00pm 11.5 8.4 7.2 75 2.1 NNE 13 19 7 10 - - 0.0
15/07:30pm 11.8 8.0 7.5 75 2.1 NE 17 24 9 13 - - 0.0
15/07:00pm 11.8 8.0 7.5 75 2.1 NE 17 26 9 14 - - 0.0
15/06:30pm 11.9 7.7 7.6 75 2.1 ENE 19 26 10 14 - - 0.0
15/06:00pm 12.1 9.1 7.6 74 2.2 NE 13 17 7 9 - - 0.0
15/05:30pm 12.7 9.7 7.8 72 2.4 NE 13 20 7 11 - - 0.0
15/05:00pm 13.3 10.2 7.3 67 3.0 NE 13 19 7 10 - - 0.0

Other formats

Comma delimited format used in spreadsheet applications
http://www.bom.gov.au/fwo/IDV60801/IDV60801.94858.axf

JavaScript Object Notation format (JSON) in row-major order
http://www.bom.gov.au/fwo/IDV60801/IDV60801.94858.json

Data quality

Most of these data are generated automatically and are frequently updated. Quality checks on data are not normally performed. It is possible for incorrect values to appear. Refer to information at About Latest Weather Observations and please check the disclaimer before using these data.